createdAt,value
2019-01-06T00:02:33.380Z,29.33
2019-01-06T00:05:30.707Z,25.77
2019-01-06T00:08:21.568Z,27.30
2019-01-06T00:11:13.928Z,28.10
2019-01-06T00:14:08.007Z,28.37
2019-01-06T00:16:55.193Z,29.20
2019-01-06T00:19:42.263Z,28.20
2019-01-06T00:22:36.194Z,28.17
2019-01-06T00:25:22.893Z,27.30
2019-01-06T00:28:16.996Z,33.70
2019-01-06T00:31:10.860Z,28.30
2019-01-06T00:33:58.893Z,28.53
2019-01-06T00:37:04.132Z,30.00
2019-01-06T00:40:10.335Z,29.57
2019-01-06T00:42:53.312Z,28.33
2019-01-06T00:45:39.876Z,28.93
2019-01-06T00:48:35.650Z,28.40
2019-01-06T00:51:22.584Z,27.10
2019-01-06T00:54:09.508Z,29.00
2019-01-06T00:57:06.966Z,27.53
2019-01-06T00:59:53.723Z,27.63
2019-01-06T01:02:48.005Z,30.43
2019-01-06T01:05:35.068Z,28.40
2019-01-06T01:08:21.578Z,29.10
2019-01-06T01:11:08.360Z,27.43
2019-01-06T01:14:08.857Z,26.70
2019-01-06T01:16:56.804Z,28.17
2019-01-06T01:19:53.657Z,28.53
2019-01-06T01:22:50.749Z,28.60
2019-01-06T01:25:37.484Z,28.27
2019-01-06T01:28:25.524Z,28.80
2019-01-06T01:31:13.541Z,26.33
2019-01-06T01:34:13.849Z,27.77
2019-01-06T01:37:00.560Z,28.53
2019-01-06T01:39:51.628Z,27.87
2019-01-06T01:42:45.540Z,27.80
2019-01-06T01:45:36.202Z,27.00
2019-01-06T01:48:24.282Z,27.67
2019-01-06T01:51:22.719Z,25.73
2019-01-06T01:54:13.793Z,27.07
2019-01-06T01:57:14.100Z,26.40
2019-01-06T02:00:01.206Z,26.63
2019-01-06T02:02:49.456Z,26.23
2019-01-06T02:05:32.434Z,26.57
2019-01-06T02:08:35.572Z,26.47
2019-01-06T02:11:22.462Z,28.00
2019-01-06T02:14:07.745Z,24.90
2019-01-06T02:16:58.673Z,26.60
2019-01-06T02:19:54.360Z,25.73
2019-01-06T02:23:00.646Z,26.10
2019-01-06T02:25:47.979Z,25.83
2019-01-06T02:28:34.876Z,27.13
2019-01-06T02:31:32.044Z,26.23
2019-01-06T02:34:25.996Z,26.13
2019-01-06T02:37:12.517Z,27.93
2019-01-06T02:40:00.502Z,26.70
2019-01-06T02:42:51.753Z,26.37
2019-01-06T02:45:40.164Z,26.20
2019-01-06T02:48:26.977Z,27.80
2019-01-06T02:51:06.811Z,26.97
2019-01-06T02:54:09.912Z,27.37
2019-01-06T02:57:03.929Z,27.57
2019-01-06T03:00:00.988Z,26.53
2019-01-06T03:02:47.893Z,27.73
2019-01-06T03:05:35.879Z,26.73
2019-01-06T03:08:29.911Z,26.60
2019-01-06T03:11:27.197Z,27.83
2019-01-06T03:14:33.941Z,26.57
2019-01-06T03:17:25.134Z,28.07
2019-01-06T03:20:22.262Z,26.80
2019-01-06T03:23:03.264Z,26.57
2019-01-06T03:25:49.139Z,32.40
2019-01-06T03:28:44.474Z,26.10
2019-01-06T03:31:41.998Z,26.73
2019-01-06T03:34:30.059Z,26.80
2019-01-06T03:37:36.202Z,25.87
2019-01-06T03:40:37.130Z,27.00
2019-01-06T03:43:34.187Z,26.80
2019-01-06T03:46:28.304Z,26.87
2019-01-06T03:49:11.015Z,25.60
2019-01-06T03:51:52.076Z,25.57
2019-01-06T03:54:42.896Z,27.10
2019-01-06T03:57:29.848Z,27.73
2019-01-06T04:00:30.726Z,26.30
2019-01-06T04:03:22.437Z,27.60
2019-01-06T04:06:16.877Z,27.30
2019-01-06T04:09:03.225Z,26.70
2019-01-06T04:11:50.202Z,26.83
2019-01-06T04:14:37.221Z,26.93
2019-01-06T04:17:30.595Z,25.33
2019-01-06T04:20:17.365Z,26.37
2019-01-06T04:23:04.486Z,26.97
2019-01-06T04:25:51.592Z,26.70
2019-01-06T04:28:42.606Z,27.00
2019-01-06T04:31:29.293Z,26.90
2019-01-06T04:34:17.278Z,27.00
2019-01-06T04:37:11.406Z,26.77
2019-01-06T04:40:11.262Z,24.60
2019-01-06T04:42:57.971Z,27.43
2019-01-06T04:45:54.346Z,26.10
2019-01-06T04:48:56.845Z,29.40
2019-01-06T04:51:43.752Z,27.90
2019-01-06T04:54:37.895Z,25.13
2019-01-06T04:57:24.870Z,27.27
2019-01-06T05:00:18.913Z,25.40
2019-01-06T05:03:06.882Z,33.57
2019-01-06T05:05:58.451Z,26.70
2019-01-06T05:08:45.348Z,25.80
2019-01-06T05:11:34.824Z,25.50
2019-01-06T05:14:29.169Z,26.27
2019-01-06T05:17:12.553Z,26.50
2019-01-06T05:20:01.262Z,26.27
2019-01-06T05:22:48.208Z,30.43
2019-01-06T05:25:34.961Z,27.00
2019-01-06T05:28:20.533Z,24.97
2019-01-06T05:31:01.410Z,26.20
2019-01-06T05:33:52.738Z,25.87
2019-01-06T05:36:56.151Z,25.50
2019-01-06T05:39:51.021Z,26.27
2019-01-06T05:42:48.393Z,24.90
2019-01-06T05:45:37.591Z,23.83
2019-01-06T05:48:28.804Z,24.40
2019-01-06T05:51:24.455Z,25.50
2019-01-06T05:54:23.384Z,25.00
2019-01-06T05:57:10.008Z,26.97
2019-01-06T05:59:56.069Z,26.90
2019-01-06T06:02:50.143Z,27.60
2019-01-06T06:05:41.321Z,26.20
2019-01-06T06:08:28.378Z,25.97
2019-01-06T06:11:28.677Z,25.33
2019-01-06T06:14:21.236Z,25.77
2019-01-06T06:17:09.239Z,28.10
2019-01-06T06:20:09.377Z,25.03
2019-01-06T06:22:54.749Z,26.20
2019-01-06T06:25:42.768Z,27.77
2019-01-06T06:28:33.760Z,27.50
2019-01-06T06:31:21.742Z,26.00
2019-01-06T06:34:22.092Z,26.20
2019-01-06T06:37:07.880Z,27.20
2019-01-06T06:39:54.629Z,30.73
2019-01-06T06:42:45.635Z,26.90
2019-01-06T06:45:32.265Z,27.63
2019-01-06T06:48:13.183Z,27.33
2019-01-06T06:51:26.109Z,26.37
2019-01-06T06:54:16.235Z,28.20
2019-01-06T06:57:41.902Z,28.17
2019-01-06T07:00:50.688Z,26.77
2019-01-06T07:03:44.665Z,27.20
2019-01-06T07:06:37.093Z,26.70
2019-01-06T07:09:43.592Z,28.17
2019-01-06T07:12:31.091Z,26.43
2019-01-06T07:15:28.294Z,29.30
2019-01-06T07:18:25.650Z,26.60
2019-01-06T07:21:19.477Z,28.30
2019-01-06T07:24:18.581Z,26.50
2019-01-06T07:27:18.508Z,26.60
2019-01-06T07:30:05.337Z,28.13
2019-01-06T07:33:11.873Z,27.80
2019-01-06T07:35:59.864Z,27.93
2019-01-06T07:38:47.908Z,28.00
2019-01-06T07:41:44.884Z,28.77
2019-01-06T07:44:31.864Z,30.10
2019-01-06T07:47:13.403Z,27.80
2019-01-06T07:49:55.336Z,29.03
2019-01-06T07:52:41.980Z,31.83
2019-01-06T07:55:36.977Z,28.30
2019-01-06T07:58:23.709Z,29.40
2019-01-06T08:01:27.240Z,27.73
2019-01-06T08:04:15.235Z,30.20
2019-01-06T08:07:06.221Z,27.50
2019-01-06T08:09:57.008Z,30.17
2019-01-06T08:12:43.702Z,29.20
2019-01-06T08:15:31.125Z,31.53
2019-01-06T08:18:37.408Z,30.30
2019-01-06T08:21:28.305Z,31.80
2019-01-06T08:24:19.335Z,29.03
2019-01-06T08:27:22.593Z,31.40
2019-01-06T08:30:25.972Z,28.90
2019-01-06T08:33:12.763Z,31.00
2019-01-06T08:35:59.737Z,27.73
2019-01-06T08:38:59.948Z,29.37
2019-01-06T08:42:06.207Z,28.60
2019-01-06T08:45:03.242Z,28.80
2019-01-06T08:48:00.425Z,27.67
2019-01-06T08:50:47.506Z,27.20
2019-01-06T08:53:36.920Z,28.20
2019-01-06T08:56:27.400Z,29.90
2019-01-06T08:59:21.539Z,27.40
2019-01-06T09:02:08.596Z,28.30
2019-01-06T09:04:55.504Z,29.13
2019-01-06T09:07:42.384Z,26.80
2019-01-06T09:10:30.400Z,28.00
2019-01-06T09:13:18.600Z,28.37
2019-01-06T09:16:12.366Z,27.80
2019-01-06T09:19:09.450Z,28.90
2019-01-06T09:21:56.081Z,27.77
2019-01-06T09:24:53.430Z,26.63
2019-01-06T09:27:47.337Z,26.20
2019-01-06T09:30:29.470Z,26.70
2019-01-06T09:33:26.408Z,26.00
2019-01-06T09:36:09.822Z,26.93
2019-01-06T09:38:50.054Z,28.20
2019-01-06T09:41:47.125Z,25.47
2019-01-06T09:44:38.126Z,26.47
2019-01-06T09:47:19.504Z,26.27
2019-01-06T09:50:21.993Z,27.03
2019-01-06T09:53:08.680Z,27.17
2019-01-06T09:56:09.029Z,26.30
2019-01-06T09:58:48.317Z,26.87
2019-01-06T10:01:40.172Z,25.73
2019-01-06T10:04:34.976Z,25.77
2019-01-06T10:07:16.730Z,30.20
2019-01-06T10:10:05.925Z,25.37
2019-01-06T10:12:52.652Z,27.20
2019-01-06T10:15:52.968Z,25.50
2019-01-06T10:18:39.593Z,26.20
2019-01-06T10:21:20.925Z,27.03
2019-01-06T10:24:07.984Z,27.03
2019-01-06T10:26:59.029Z,29.23
2019-01-06T10:29:48.666Z,30.10
2019-01-06T10:32:51.755Z,27.77
2019-01-06T10:35:48.739Z,29.77
2019-01-06T10:38:35.554Z,27.23
2019-01-06T10:41:42.139Z,28.00
2019-01-06T10:44:45.009Z,28.93
2019-01-06T10:47:45.497Z,27.20
2019-01-06T10:50:32.121Z,28.30
2019-01-06T10:53:18.713Z,31.60
2019-01-06T10:56:06.623Z,28.40
2019-01-06T10:58:55.522Z,29.20
2019-01-06T11:01:58.943Z,28.10
2019-01-06T11:04:45.761Z,28.70
2019-01-06T11:07:39.601Z,29.20
2019-01-06T11:10:28.026Z,27.20
2019-01-06T11:13:16.044Z,27.90
2019-01-06T11:16:04.093Z,28.87
2019-01-06T11:18:50.921Z,29.37
2019-01-06T11:21:41.761Z,27.13
2019-01-06T11:24:28.840Z,28.63
2019-01-06T11:27:12.272Z,30.47
2019-01-06T11:29:58.947Z,27.60
2019-01-06T11:32:47.013Z,34.63
2019-01-06T11:35:41.111Z,27.50
2019-01-06T11:38:35.077Z,27.57
2019-01-06T11:41:32.153Z,27.20
2019-01-06T11:44:26.226Z,31.00
2019-01-06T11:47:14.431Z,28.10
2019-01-06T11:50:17.617Z,29.00
2019-01-06T11:53:04.332Z,28.50
2019-01-06T11:55:45.793Z,27.93
2019-01-06T11:58:32.772Z,28.53
2019-01-06T12:01:29.913Z,29.70
2019-01-06T12:04:23.807Z,26.80
2019-01-06T12:07:10.750Z,26.30
2019-01-06T12:10:11.020Z,26.80
2019-01-06T12:12:58.001Z,27.60
2019-01-06T12:15:58.650Z,26.80
2019-01-06T12:18:45.712Z,27.43
2019-01-06T12:21:32.708Z,28.27
2019-01-06T12:24:20.717Z,28.20
2019-01-06T12:27:11.517Z,28.40
2019-01-06T12:30:11.464Z,28.80
2019-01-06T12:33:12.388Z,26.00
2019-01-06T12:36:09.629Z,25.80
2019-01-06T12:38:56.298Z,25.20
2019-01-06T12:41:44.266Z,24.70
2019-01-06T12:44:44.888Z,25.53
2019-01-06T12:47:40.976Z,26.23
2019-01-06T12:50:38.074Z,25.67
2019-01-06T12:53:28.929Z,26.73
2019-01-06T12:56:16.121Z,25.23
2019-01-06T12:59:03.033Z,28.00
2019-01-06T13:01:48.919Z,25.97
2019-01-06T13:04:35.632Z,27.10
2019-01-06T13:07:22.559Z,27.13
2019-01-06T13:10:10.582Z,24.70
2019-01-06T13:12:59.042Z,24.63
2019-01-06T13:15:46.136Z,28.50
2019-01-06T13:18:46.601Z,28.07
2019-01-06T13:21:38.600Z,26.77
2019-01-06T13:24:25.477Z,26.57
2019-01-06T13:27:12.634Z,28.03
2019-01-06T13:30:01.276Z,25.97
2019-01-06T13:32:52.302Z,27.80
2019-01-06T13:35:58.343Z,28.07
2019-01-06T13:38:45.000Z,28.50
2019-01-06T13:41:26.850Z,27.53
2019-01-06T13:44:33.261Z,26.03
2019-01-06T13:47:19.678Z,27.83
2019-01-06T13:50:20.110Z,31.70
2019-01-06T13:53:09.251Z,27.20
2019-01-06T13:55:56.248Z,26.30
2019-01-06T13:58:44.220Z,26.77
2019-01-06T14:01:32.205Z,27.90
2019-01-06T14:04:35.552Z,28.53
2019-01-06T14:07:41.722Z,26.17
2019-01-06T14:10:32.672Z,27.00
2019-01-06T14:13:15.526Z,26.40
2019-01-06T14:16:12.428Z,26.90
2019-01-06T14:19:01.849Z,26.17
2019-01-06T14:21:49.917Z,26.07
2019-01-06T14:24:37.929Z,26.60
2019-01-06T14:27:35.979Z,27.93
2019-01-06T14:30:23.811Z,25.63
2019-01-06T14:33:18.122Z,25.90
2019-01-06T14:36:04.798Z,24.10
2019-01-06T14:38:51.811Z,24.17
2019-01-06T14:41:38.604Z,25.63
2019-01-06T14:44:25.559Z,24.33
2019-01-06T14:47:13.753Z,24.97
2019-01-06T14:50:14.153Z,25.87
2019-01-06T14:53:00.888Z,25.17
2019-01-06T14:55:43.676Z,26.27
2019-01-06T14:58:31.755Z,26.27
2019-01-06T15:01:31.770Z,26.60
2019-01-06T15:04:28.042Z,25.30
2019-01-06T15:07:22.261Z,26.13
2019-01-06T15:10:28.472Z,25.70
2019-01-06T15:13:16.620Z,27.10
2019-01-06T15:16:04.612Z,25.90
2019-01-06T15:18:51.302Z,26.43
2019-01-06T15:21:48.175Z,27.13
2019-01-06T15:24:54.604Z,26.60
2019-01-06T15:27:51.783Z,26.57
2019-01-06T15:30:38.711Z,26.50
2019-01-06T15:33:21.492Z,26.87
2019-01-06T15:36:08.544Z,26.80
2019-01-06T15:38:55.450Z,28.13
2019-01-06T15:41:42.381Z,26.50
2019-01-06T15:44:33.459Z,26.50
2019-01-06T15:47:20.172Z,24.50
2019-01-06T15:50:07.842Z,27.03
2019-01-06T15:52:54.717Z,26.50
2019-01-06T15:55:48.854Z,26.00
2019-01-06T15:58:35.809Z,25.63
2019-01-06T16:01:22.974Z,26.03
2019-01-06T16:04:09.810Z,25.83
2019-01-06T16:07:10.109Z,26.20
2019-01-06T16:09:56.933Z,25.70
2019-01-06T16:12:51.052Z,29.07
2019-01-06T16:15:39.053Z,26.90
2019-01-06T16:18:24.332Z,27.37
2019-01-06T16:21:24.354Z,27.17
2019-01-06T16:24:08.308Z,27.30
2019-01-06T16:26:54.980Z,25.90
2019-01-06T16:29:49.225Z,26.47
2019-01-06T16:32:43.589Z,28.30
2019-01-06T16:35:30.485Z,26.73
2019-01-06T16:38:30.908Z,27.97
2019-01-06T16:41:28.143Z,30.30
2019-01-06T16:44:10.714Z,27.80
2019-01-06T16:47:10.845Z,28.60
2019-01-06T16:50:04.977Z,32.70
2019-01-06T16:52:47.294Z,27.37
2019-01-06T16:55:47.478Z,29.40
2019-01-06T16:58:35.536Z,28.53
2019-01-06T17:01:35.905Z,27.70
2019-01-06T17:04:24.017Z,27.07
2019-01-06T17:07:10.931Z,27.67
2019-01-06T17:10:01.737Z,28.27
2019-01-06T17:12:59.607Z,28.67
2019-01-06T17:15:45.244Z,29.73
2019-01-06T17:18:42.160Z,28.10
2019-01-06T17:21:30.144Z,27.50
2019-01-06T17:24:16.869Z,28.77
2019-01-06T17:27:04.025Z,28.57
2019-01-06T17:29:54.075Z,26.40
2019-01-06T17:32:40.743Z,27.70
2019-01-06T17:35:27.734Z,29.30
2019-01-06T17:38:14.848Z,28.70
2019-01-06T17:41:01.884Z,29.43
2019-01-06T17:43:55.974Z,27.87
2019-01-06T17:46:42.601Z,30.73
2019-01-06T17:49:29.611Z,31.20
2019-01-06T17:52:36.147Z,28.00
2019-01-06T17:55:22.592Z,28.03
2019-01-06T17:58:08.564Z,27.77
2019-01-06T18:01:05.623Z,28.13
2019-01-06T18:03:59.725Z,29.63
2019-01-06T18:06:47.804Z,30.27
2019-01-06T18:09:44.784Z,30.83
2019-01-06T18:12:32.821Z,31.17
2019-01-06T18:15:23.377Z,30.60
2019-01-06T18:18:14.176Z,31.80
2019-01-06T18:21:02.156Z,30.70
2019-01-06T18:23:53.566Z,29.20
2019-01-06T18:26:40.647Z,30.40
2019-01-06T18:29:44.109Z,30.87
2019-01-06T18:32:47.011Z,34.27
2019-01-06T18:35:29.549Z,33.23
2019-01-06T18:38:20.658Z,35.17
2019-01-06T18:41:10.441Z,32.93
2019-01-06T18:44:10.758Z,32.77
2019-01-06T18:47:01.891Z,33.67
2019-01-06T18:49:49.910Z,36.90
2019-01-06T18:52:31.985Z,33.07
2019-01-06T18:55:38.230Z,38.50
2019-01-06T18:58:24.961Z,39.50
2019-01-06T19:01:16.000Z,33.57
2019-01-06T19:04:02.793Z,34.37
2019-01-06T19:07:09.289Z,32.67
2019-01-06T19:10:01.684Z,34.10
2019-01-06T19:13:02.325Z,33.37
2019-01-06T19:15:42.534Z,34.53
2019-01-06T19:18:29.893Z,32.97
2019-01-06T19:21:17.896Z,33.07
2019-01-06T19:24:04.905Z,32.23
2019-01-06T19:26:59.139Z,33.10
2019-01-06T19:29:45.845Z,32.70
2019-01-06T19:32:32.947Z,32.57
2019-01-06T19:35:24.029Z,32.50
2019-01-06T19:38:10.973Z,31.00
2019-01-06T19:40:57.965Z,31.63
2019-01-06T19:43:45.185Z,31.97
2019-01-06T19:46:45.568Z,33.00
2019-01-06T19:49:33.590Z,32.70
2019-01-06T19:52:20.733Z,26.60
2019-01-06T19:54:58.472Z,31.77
2019-01-06T19:57:47.162Z,31.40
2019-01-06T20:00:33.733Z,30.57
2019-01-06T20:03:20.885Z,30.17
2019-01-06T20:06:14.952Z,31.90
2019-01-06T20:09:07.353Z,31.70
2019-01-06T20:12:04.613Z,33.70
2019-01-06T20:14:51.349Z,31.40
2019-01-06T20:17:38.292Z,31.77
2019-01-06T20:20:35.936Z,29.97
2019-01-06T20:23:36.033Z,31.00
2019-01-06T20:26:35.513Z,31.93
2019-01-06T20:29:22.145Z,31.00
2019-01-06T20:32:18.743Z,30.50
2019-01-06T20:35:05.817Z,29.50
2019-01-06T20:37:52.637Z,32.20
2019-01-06T20:40:40.633Z,30.23
2019-01-06T20:43:46.117Z,32.03
2019-01-06T20:46:38.407Z,30.80
2019-01-06T20:49:24.410Z,29.67
2019-01-06T20:52:07.054Z,32.63
2019-01-06T20:54:53.890Z,29.33
2019-01-06T20:57:40.841Z,28.43
2019-01-06T21:00:44.099Z,31.30
2019-01-06T21:03:31.025Z,31.17
2019-01-06T21:06:19.138Z,29.60
2019-01-06T21:09:13.103Z,31.07
2019-01-06T21:12:01.511Z,30.20
2019-01-06T21:14:48.035Z,31.10
2019-01-06T21:17:32.146Z,29.83
2019-01-06T21:20:26.526Z,34.67
2019-01-06T21:23:14.636Z,29.40
2019-01-06T21:26:18.129Z,28.60
2019-01-06T21:29:15.108Z,29.80
2019-01-06T21:32:03.901Z,30.13
2019-01-06T21:35:10.612Z,30.13
2019-01-06T21:37:57.444Z,30.50
2019-01-06T21:40:44.242Z,30.40
2019-01-06T21:43:30.684Z,29.50
2019-01-06T21:46:20.080Z,28.13
2019-01-06T21:49:06.720Z,29.33
2019-01-06T21:52:07.157Z,27.70
2019-01-06T21:54:49.889Z,28.70
2019-01-06T21:57:49.996Z,27.37
2019-01-06T22:00:44.825Z,28.57
2019-01-06T22:03:44.956Z,27.70
2019-01-06T22:06:31.743Z,27.10
2019-01-06T22:09:32.198Z,27.40
2019-01-06T22:12:10.585Z,27.50
2019-01-06T22:15:13.738Z,27.20
2019-01-06T22:18:00.165Z,27.27
2019-01-06T22:20:54.606Z,26.90
2019-01-06T22:23:58.249Z,27.47
2019-01-06T22:26:46.260Z,25.97
2019-01-06T22:29:52.597Z,27.03
2019-01-06T22:32:43.560Z,27.60
2019-01-06T22:35:30.574Z,27.07
2019-01-06T22:38:26.524Z,27.87
2019-01-06T22:41:13.232Z,27.30
2019-01-06T22:44:00.173Z,27.93
2019-01-06T22:47:00.489Z,28.97
2019-01-06T22:49:41.237Z,27.60
2019-01-06T22:52:28.028Z,29.00
2019-01-06T22:55:14.992Z,27.23
2019-01-06T22:58:07.083Z,27.57
2019-01-06T23:01:00.395Z,28.50
2019-01-06T23:03:57.533Z,27.83
2019-01-06T23:06:44.417Z,28.13
2019-01-06T23:09:35.463Z,27.80
2019-01-06T23:12:39.317Z,26.67
2019-01-06T23:15:30.581Z,28.97
2019-01-06T23:18:24.754Z,28.13
2019-01-06T23:21:21.802Z,28.03
2019-01-06T23:24:21.902Z,27.57
2019-01-06T23:27:11.871Z,27.37
2019-01-06T23:30:09.139Z,25.80
2019-01-06T23:32:50.909Z,27.33
2019-01-06T23:35:37.814Z,26.90
2019-01-06T23:38:44.241Z,29.30
2019-01-06T23:41:41.352Z,26.90
2019-01-06T23:44:38.550Z,25.50
2019-01-06T23:47:25.436Z,25.67
2019-01-06T23:50:25.740Z,25.80
2019-01-06T23:53:12.981Z,27.00
2019-01-06T23:55:59.840Z,26.73
2019-01-06T23:59:03.098Z,28.00
